sensor_id;sensor_type;location;lat;lon;timestamp;P1;durP1;ratioP1;P2;durP2;ratioP2
56045;SDS011;41913;51.030;3.706;2023-02-11T00:00:04;0.57;;;0.57;;
56045;SDS011;41913;51.030;3.706;2023-02-11T00:02:33;0.65;;;0.65;;
56045;SDS011;41913;51.030;3.706;2023-02-11T00:05:00;1.80;;;0.60;;
56045;SDS011;41913;51.030;3.706;2023-02-11T00:07:33;1.05;;;0.95;;
56045;SDS011;41913;51.030;3.706;2023-02-11T00:09:59;0.80;;;0.80;;
56045;SDS011;41913;51.030;3.706;2023-02-11T00:12:27;0.95;;;0.90;;
56045;SDS011;41913;51.030;3.706;2023-02-11T00:14:53;0.88;;;0.88;;
56045;SDS011;41913;51.030;3.706;2023-02-11T00:17:19;3.10;;;1.33;;
56045;SDS011;41913;51.030;3.706;2023-02-11T00:19:48;1.10;;;1.10;;
56045;SDS011;41913;51.030;3.706;2023-02-11T00:22:15;1.00;;;0.90;;
56045;SDS011;41913;51.030;3.706;2023-02-11T00:24:40;1.95;;;1.10;;
56045;SDS011;41913;51.030;3.706;2023-02-11T00:27:06;1.08;;;0.98;;
56045;SDS011;41913;51.030;3.706;2023-02-11T00:29:32;1.38;;;1.08;;
56045;SDS011;41913;51.030;3.706;2023-02-11T00:31:57;1.08;;;1.02;;
56045;SDS011;41913;51.030;3.706;2023-02-11T00:34:29;1.10;;;1.00;;
56045;SDS011;41913;51.030;3.706;2023-02-11T00:36:57;0.90;;;0.90;;
56045;SDS011;41913;51.030;3.706;2023-02-11T00:39:23;1.70;;;1.02;;
56045;SDS011;41913;51.030;3.706;2023-02-11T00:41:49;0.95;;;0.95;;
56045;SDS011;41913;51.030;3.706;2023-02-11T00:44:14;1.25;;;1.15;;
56045;SDS011;41913;51.030;3.706;2023-02-11T00:46:40;1.15;;;1.05;;
56045;SDS011;41913;51.030;3.706;2023-02-11T00:49:06;1.40;;;1.20;;
56045;SDS011;41913;51.030;3.706;2023-02-11T00:51:31;2.10;;;0.98;;
56045;SDS011;41913;51.030;3.706;2023-02-11T00:53:57;0.73;;;0.73;;
56045;SDS011;41913;51.030;3.706;2023-02-11T00:56:23;2.38;;;1.13;;
56045;SDS011;41913;51.030;3.706;2023-02-11T00:58:49;2.22;;;1.30;;
56045;SDS011;41913;51.030;3.706;2023-02-11T01:01:14;0.85;;;0.85;;
56045;SDS011;41913;51.030;3.706;2023-02-11T01:03:40;1.20;;;1.10;;
56045;SDS011;41913;51.030;3.706;2023-02-11T01:06:06;1.33;;;0.90;;
56045;SDS011;41913;51.030;3.706;2023-02-11T01:08:33;0.75;;;0.75;;
56045;SDS011;41913;51.030;3.706;2023-02-11T01:11:04;1.10;;;1.10;;
56045;SDS011;41913;51.030;3.706;2023-02-11T01:13:33;0.90;;;0.90;;
56045;SDS011;41913;51.030;3.706;2023-02-11T01:16:01;1.05;;;0.90;;
56045;SDS011;41913;51.030;3.706;2023-02-11T01:18:27;0.68;;;0.68;;
56045;SDS011;41913;51.030;3.706;2023-02-11T01:20:53;0.70;;;0.70;;
56045;SDS011;41913;51.030;3.706;2023-02-11T01:23:19;0.65;;;0.63;;
56045;SDS011;41913;51.030;3.706;2023-02-11T01:25:44;0.80;;;0.80;;
56045;SDS011;41913;51.030;3.706;2023-02-11T01:28:15;1.00;;;0.80;;
56045;SDS011;41913;51.030;3.706;2023-02-11T01:30:46;0.82;;;0.80;;
56045;SDS011;41913;51.030;3.706;2023-02-11T01:33:12;0.80;;;0.80;;
56045;SDS011;41913;51.030;3.706;2023-02-11T01:35:38;1.08;;;0.90;;
56045;SDS011;41913;51.030;3.706;2023-02-11T01:38:07;0.75;;;0.75;;
56045;SDS011;41913;51.030;3.706;2023-02-11T01:40:49;1.15;;;0.80;;
56045;SDS011;41913;51.030;3.706;2023-02-11T01:43:17;0.65;;;0.57;;
56045;SDS011;41913;51.030;3.706;2023-02-11T01:48:21;0.80;;;0.80;;
56045;SDS011;41913;51.030;3.706;2023-02-11T01:50:51;0.90;;;0.90;;
56045;SDS011;41913;51.030;3.706;2023-02-11T01:53:23;0.98;;;0.88;;
56045;SDS011;41913;51.030;3.706;2023-02-11T01:56:08;0.88;;;0.88;;
56045;SDS011;41913;51.030;3.706;2023-02-11T01:58:54;2.47;;;1.30;;
56045;SDS011;41913;51.030;3.706;2023-02-11T02:01:27;0.90;;;0.90;;
56045;SDS011;41913;51.030;3.706;2023-02-11T02:03:56;0.85;;;0.85;;
56045;SDS011;41913;51.030;3.706;2023-02-11T02:06:26;0.70;;;0.70;;
56045;SDS011;41913;51.030;3.706;2023-02-11T02:09:05;1.27;;;1.13;;
56045;SDS011;41913;51.030;3.706;2023-02-11T02:11:39;1.23;;;0.70;;
56045;SDS011;41913;51.030;3.706;2023-02-11T02:14:04;0.90;;;0.60;;
56045;SDS011;41913;51.030;3.706;2023-02-11T02:16:31;1.35;;;0.90;;
56045;SDS011;41913;51.030;3.706;2023-02-11T02:22:47;1.45;;;0.70;;
56045;SDS011;41913;51.030;3.706;2023-02-11T02:27:47;1.40;;;1.10;;
56045;SDS011;41913;51.030;3.706;2023-02-11T02:33:32;1.13;;;0.73;;
56045;SDS011;41913;51.030;3.706;2023-02-11T02:36:05;0.80;;;0.80;;
56045;SDS011;41913;51.030;3.706;2023-02-11T02:38:55;1.65;;;1.00;;
56045;SDS011;41913;51.030;3.706;2023-02-11T02:41:30;0.98;;;0.98;;
56045;SDS011;41913;51.030;3.706;2023-02-11T02:43:58;2.83;;;1.25;;
56045;SDS011;41913;51.030;3.706;2023-02-11T02:48:54;1.02;;;0.82;;
56045;SDS011;41913;51.030;3.706;2023-02-11T03:10:51;1.30;;;0.70;;
56045;SDS011;41913;51.030;3.706;2023-02-11T03:13:20;0.77;;;0.70;;
56045;SDS011;41913;51.030;3.706;2023-02-11T03:15:51;1.50;;;0.80;;
56045;SDS011;41913;51.030;3.706;2023-02-11T03:18:20;1.70;;;1.30;;
56045;SDS011;41913;51.030;3.706;2023-02-11T03:20:49;0.88;;;0.88;;
56045;SDS011;41913;51.030;3.706;2023-02-11T03:25:55;0.70;;;0.70;;
56045;SDS011;41913;51.030;3.706;2023-02-11T03:31:12;1.30;;;0.88;;
56045;SDS011;41913;51.030;3.706;2023-02-11T03:34:05;1.00;;;0.77;;
56045;SDS011;41913;51.030;3.706;2023-02-11T03:36:48;0.80;;;0.80;;
56045;SDS011;41913;51.030;3.706;2023-02-11T03:39:20;0.68;;;0.60;;
56045;SDS011;41913;51.030;3.706;2023-02-11T03:41:49;0.68;;;0.68;;
56045;SDS011;41913;51.030;3.706;2023-02-11T03:44:19;1.65;;;0.63;;
56045;SDS011;41913;51.030;3.706;2023-02-11T03:46:49;0.75;;;0.75;;
56045;SDS011;41913;51.030;3.706;2023-02-11T03:49:20;0.57;;;0.57;;
56045;SDS011;41913;51.030;3.706;2023-02-11T03:51:48;1.25;;;0.50;;
56045;SDS011;41913;51.030;3.706;2023-02-11T03:54:27;0.68;;;0.68;;
56045;SDS011;41913;51.030;3.706;2023-02-11T03:56:56;0.60;;;0.60;;
56045;SDS011;41913;51.030;3.706;2023-02-11T03:59:24;0.60;;;0.60;;
56045;SDS011;41913;51.030;3.706;2023-02-11T04:01:50;0.57;;;0.57;;
56045;SDS011;41913;51.030;3.706;2023-02-11T04:04:16;0.50;;;0.50;;
56045;SDS011;41913;51.030;3.706;2023-02-11T04:06:42;0.40;;;0.40;;
56045;SDS011;41913;51.030;3.706;2023-02-11T04:09:08;0.30;;;0.30;;
56045;SDS011;41913;51.030;3.706;2023-02-11T04:11:34;1.20;;;1.02;;
56045;SDS011;41913;51.030;3.706;2023-02-11T04:14:00;0.57;;;0.57;;
56045;SDS011;41913;51.030;3.706;2023-02-11T04:16:27;0.40;;;0.40;;
56045;SDS011;41913;51.030;3.706;2023-02-11T04:18:55;0.65;;;0.65;;
56045;SDS011;41913;51.030;3.706;2023-02-11T04:21:22;0.43;;;0.43;;
56045;SDS011;41913;51.030;3.706;2023-02-11T04:23:48;0.80;;;0.55;;
56045;SDS011;41913;51.030;3.706;2023-02-11T04:26:14;0.60;;;0.60;;
56045;SDS011;41913;51.030;3.706;2023-02-11T04:28:40;0.38;;;0.38;;
56045;SDS011;41913;51.030;3.706;2023-02-11T04:31:05;0.50;;;0.50;;
56045;SDS011;41913;51.030;3.706;2023-02-11T04:33:31;1.08;;;0.77;;
56045;SDS011;41913;51.030;3.706;2023-02-11T04:35:57;0.52;;;0.52;;
56045;SDS011;41913;51.030;3.706;2023-02-11T04:38:22;0.50;;;0.50;;
56045;SDS011;41913;51.030;3.706;2023-02-11T04:40:48;0.50;;;0.50;;
56045;SDS011;41913;51.030;3.706;2023-02-11T04:43:14;0.60;;;0.60;;
56045;SDS011;41913;51.030;3.706;2023-02-11T04:45:40;1.13;;;0.40;;
56045;SDS011;41913;51.030;3.706;2023-02-11T04:48:05;0.68;;;0.68;;
56045;SDS011;41913;51.030;3.706;2023-02-11T04:50:31;0.55;;;0.55;;
56045;SDS011;41913;51.030;3.706;2023-02-11T04:52:57;0.77;;;0.77;;
56045;SDS011;41913;51.030;3.706;2023-02-11T04:55:22;0.40;;;0.40;;
56045;SDS011;41913;51.030;3.706;2023-02-11T04:57:48;0.95;;;0.90;;
56045;SDS011;41913;51.030;3.706;2023-02-11T05:00:14;0.30;;;0.30;;
56045;SDS011;41913;51.030;3.706;2023-02-11T05:02:40;0.50;;;0.50;;
56045;SDS011;41913;51.030;3.706;2023-02-11T05:05:06;0.45;;;0.45;;
56045;SDS011;41913;51.030;3.706;2023-02-11T05:07:32;0.30;;;0.30;;
56045;SDS011;41913;51.030;3.706;2023-02-11T05:09:57;0.50;;;0.50;;
56045;SDS011;41913;51.030;3.706;2023-02-11T05:12:23;0.57;;;0.57;;
56045;SDS011;41913;51.030;3.706;2023-02-11T05:14:49;0.60;;;0.60;;
56045;SDS011;41913;51.030;3.706;2023-02-11T05:17:15;0.57;;;0.57;;
56045;SDS011;41913;51.030;3.706;2023-02-11T05:19:40;0.75;;;0.50;;
56045;SDS011;41913;51.030;3.706;2023-02-11T05:22:07;0.63;;;0.63;;
56045;SDS011;41913;51.030;3.706;2023-02-11T05:24:33;0.57;;;0.57;;
56045;SDS011;41913;51.030;3.706;2023-02-11T05:26:59;0.60;;;0.60;;
56045;SDS011;41913;51.030;3.706;2023-02-11T05:29:25;0.40;;;0.40;;
56045;SDS011;41913;51.030;3.706;2023-02-11T05:31:51;0.30;;;0.30;;
56045;SDS011;41913;51.030;3.706;2023-02-11T05:34:16;0.95;;;0.50;;
56045;SDS011;41913;51.030;3.706;2023-02-11T05:36:43;0.50;;;0.50;;
56045;SDS011;41913;51.030;3.706;2023-02-11T05:39:11;0.60;;;0.60;;
56045;SDS011;41913;51.030;3.706;2023-02-11T05:41:37;0.30;;;0.30;;
56045;SDS011;41913;51.030;3.706;2023-02-11T05:44:03;0.30;;;0.30;;
56045;SDS011;41913;51.030;3.706;2023-02-11T05:46:28;0.45;;;0.45;;
56045;SDS011;41913;51.030;3.706;2023-02-11T05:48:54;0.40;;;0.40;;
56045;SDS011;41913;51.030;3.706;2023-02-11T05:51:20;0.80;;;0.60;;
56045;SDS011;41913;51.030;3.706;2023-02-11T05:53:46;0.30;;;0.30;;
56045;SDS011;41913;51.030;3.706;2023-02-11T05:56:12;0.57;;;0.57;;
56045;SDS011;41913;51.030;3.706;2023-02-11T05:58:38;0.40;;;0.40;;
56045;SDS011;41913;51.030;3.706;2023-02-11T06:01:06;0.50;;;0.50;;
56045;SDS011;41913;51.030;3.706;2023-02-11T06:03:31;0.80;;;0.80;;
56045;SDS011;41913;51.030;3.706;2023-02-11T06:05:57;0.30;;;0.30;;
56045;SDS011;41913;51.030;3.706;2023-02-11T06:08:23;0.57;;;0.43;;
56045;SDS011;41913;51.030;3.706;2023-02-11T06:10:49;0.55;;;0.55;;
56045;SDS011;41913;51.030;3.706;2023-02-11T06:13:15;0.60;;;0.60;;
56045;SDS011;41913;51.030;3.706;2023-02-11T06:15:42;0.57;;;0.57;;
56045;SDS011;41913;51.030;3.706;2023-02-11T06:18:08;0.38;;;0.38;;
56045;SDS011;41913;51.030;3.706;2023-02-11T06:20:34;0.47;;;0.47;;
56045;SDS011;41913;51.030;3.706;2023-02-11T06:23:00;0.50;;;0.50;;
56045;SDS011;41913;51.030;3.706;2023-02-11T06:25:25;0.57;;;0.52;;
56045;SDS011;41913;51.030;3.706;2023-02-11T06:27:51;0.50;;;0.50;;
56045;SDS011;41913;51.030;3.706;2023-02-11T06:30:17;0.40;;;0.40;;
56045;SDS011;41913;51.030;3.706;2023-02-11T06:32:43;0.40;;;0.40;;
56045;SDS011;41913;51.030;3.706;2023-02-11T06:35:09;0.32;;;0.32;;
56045;SDS011;41913;51.030;3.706;2023-02-11T06:37:34;0.30;;;0.30;;
56045;SDS011;41913;51.030;3.706;2023-02-11T06:40:01;0.40;;;0.40;;
56045;SDS011;41913;51.030;3.706;2023-02-11T06:42:27;0.57;;;0.50;;
56045;SDS011;41913;51.030;3.706;2023-02-11T06:44:52;0.40;;;0.40;;
56045;SDS011;41913;51.030;3.706;2023-02-11T06:47:18;0.40;;;0.40;;
56045;SDS011;41913;51.030;3.706;2023-02-11T06:49:44;0.40;;;0.40;;
56045;SDS011;41913;51.030;3.706;2023-02-11T06:52:10;1.80;;;0.50;;
56045;SDS011;41913;51.030;3.706;2023-02-11T06:54:35;0.47;;;0.47;;
56045;SDS011;41913;51.030;3.706;2023-02-11T06:57:01;0.45;;;0.45;;
56045;SDS011;41913;51.030;3.706;2023-02-11T06:59:26;0.80;;;0.35;;
56045;SDS011;41913;51.030;3.706;2023-02-11T07:01:52;0.55;;;0.55;;
56045;SDS011;41913;51.030;3.706;2023-02-11T07:04:18;0.68;;;0.68;;
56045;SDS011;41913;51.030;3.706;2023-02-11T07:06:43;0.40;;;0.40;;
56045;SDS011;41913;51.030;3.706;2023-02-11T07:09:09;0.45;;;0.45;;
56045;SDS011;41913;51.030;3.706;2023-02-11T07:11:35;0.60;;;0.60;;
56045;SDS011;41913;51.030;3.706;2023-02-11T07:14:02;1.02;;;0.60;;
56045;SDS011;41913;51.030;3.706;2023-02-11T07:16:29;0.63;;;0.63;;
56045;SDS011;41913;51.030;3.706;2023-02-11T07:18:55;0.52;;;0.52;;
56045;SDS011;41913;51.030;3.706;2023-02-11T07:21:21;0.35;;;0.35;;
56045;SDS011;41913;51.030;3.706;2023-02-11T07:23:48;0.65;;;0.65;;
56045;SDS011;41913;51.030;3.706;2023-02-11T07:26:16;0.30;;;0.30;;
56045;SDS011;41913;51.030;3.706;2023-02-11T07:28:43;0.47;;;0.47;;
56045;SDS011;41913;51.030;3.706;2023-02-11T07:33:42;0.80;;;0.50;;
56045;SDS011;41913;51.030;3.706;2023-02-11T07:36:10;0.40;;;0.40;;
56045;SDS011;41913;51.030;3.706;2023-02-11T07:38:37;0.50;;;0.50;;
56045;SDS011;41913;51.030;3.706;2023-02-11T07:41:04;0.68;;;0.60;;
56045;SDS011;41913;51.030;3.706;2023-02-11T07:43:32;0.60;;;0.60;;
56045;SDS011;41913;51.030;3.706;2023-02-11T07:45:58;0.50;;;0.50;;
56045;SDS011;41913;51.030;3.706;2023-02-11T07:48:26;0.43;;;0.43;;
56045;SDS011;41913;51.030;3.706;2023-02-11T07:50:52;0.85;;;0.65;;
56045;SDS011;41913;51.030;3.706;2023-02-11T07:53:18;0.43;;;0.43;;
56045;SDS011;41913;51.030;3.706;2023-02-11T07:55:43;0.50;;;0.50;;
56045;SDS011;41913;51.030;3.706;2023-02-11T07:58:09;0.63;;;0.63;;
56045;SDS011;41913;51.030;3.706;2023-02-11T08:00:35;0.40;;;0.40;;
56045;SDS011;41913;51.030;3.706;2023-02-11T08:03:01;0.60;;;0.60;;
56045;SDS011;41913;51.030;3.706;2023-02-11T08:05:27;1.20;;;1.02;;
56045;SDS011;41913;51.030;3.706;2023-02-11T08:07:54;0.50;;;0.50;;
56045;SDS011;41913;51.030;3.706;2023-02-11T08:10:20;1.50;;;0.55;;
56045;SDS011;41913;51.030;3.706;2023-02-11T08:12:46;0.60;;;0.60;;
56045;SDS011;41913;51.030;3.706;2023-02-11T08:15:12;0.60;;;0.60;;
56045;SDS011;41913;51.030;3.706;2023-02-11T08:17:38;0.82;;;0.70;;
56045;SDS011;41913;51.030;3.706;2023-02-11T08:20:05;0.93;;;0.65;;
56045;SDS011;41913;51.030;3.706;2023-02-11T08:22:31;0.50;;;0.50;;
56045;SDS011;41913;51.030;3.706;2023-02-11T08:24:58;0.80;;;0.55;;
56045;SDS011;41913;51.030;3.706;2023-02-11T08:27:29;0.52;;;0.52;;
56045;SDS011;41913;51.030;3.706;2023-02-11T08:29:56;2.28;;;1.25;;
56045;SDS011;41913;51.030;3.706;2023-02-11T08:32:23;0.68;;;0.68;;
56045;SDS011;41913;51.030;3.706;2023-02-11T08:34:50;0.95;;;0.95;;
56045;SDS011;41913;51.030;3.706;2023-02-11T08:37:18;0.50;;;0.50;;
56045;SDS011;41913;51.030;3.706;2023-02-11T08:39:45;0.90;;;0.90;;
56045;SDS011;41913;51.030;3.706;2023-02-11T08:42:12;1.30;;;0.75;;
56045;SDS011;41913;51.030;3.706;2023-02-11T08:44:40;0.65;;;0.65;;
56045;SDS011;41913;51.030;3.706;2023-02-11T08:47:06;0.82;;;0.82;;
56045;SDS011;41913;51.030;3.706;2023-02-11T08:49:32;0.90;;;0.90;;
56045;SDS011;41913;51.030;3.706;2023-02-11T08:51:58;0.70;;;0.70;;
56045;SDS011;41913;51.030;3.706;2023-02-11T08:54:29;1.13;;;0.98;;
56045;SDS011;41913;51.030;3.706;2023-02-11T08:56:56;0.93;;;0.93;;
56045;SDS011;41913;51.030;3.706;2023-02-11T08:59:22;1.40;;;1.40;;
56045;SDS011;41913;51.030;3.706;2023-02-11T09:01:48;1.95;;;1.00;;
56045;SDS011;41913;51.030;3.706;2023-02-11T09:04:14;1.33;;;1.23;;
56045;SDS011;41913;51.030;3.706;2023-02-11T09:06:40;1.00;;;1.00;;
56045;SDS011;41913;51.030;3.706;2023-02-11T09:09:09;0.65;;;0.65;;
56045;SDS011;41913;51.030;3.706;2023-02-11T09:11:39;1.20;;;1.20;;
56045;SDS011;41913;51.030;3.706;2023-02-11T09:14:10;1.10;;;1.10;;
56045;SDS011;41913;51.030;3.706;2023-02-11T09:16:45;1.20;;;1.10;;
56045;SDS011;41913;51.030;3.706;2023-02-11T09:19:11;1.33;;;1.33;;
56045;SDS011;41913;51.030;3.706;2023-02-11T09:21:37;1.30;;;1.30;;
56045;SDS011;41913;51.030;3.706;2023-02-11T09:24:03;1.30;;;1.20;;
56045;SDS011;41913;51.030;3.706;2023-02-11T09:26:32;1.27;;;1.17;;
56045;SDS011;41913;51.030;3.706;2023-02-11T09:28:59;2.05;;;1.50;;
56045;SDS011;41913;51.030;3.706;2023-02-11T09:31:25;1.27;;;1.27;;
56045;SDS011;41913;51.030;3.706;2023-02-11T09:33:54;1.60;;;1.50;;
56045;SDS011;41913;51.030;3.706;2023-02-11T09:36:23;1.30;;;1.30;;
56045;SDS011;41913;51.030;3.706;2023-02-11T09:38:50;1.63;;;1.50;;
56045;SDS011;41913;51.030;3.706;2023-02-11T09:43:58;1.63;;;1.52;;
56045;SDS011;41913;51.030;3.706;2023-02-11T09:46:30;1.48;;;1.38;;
56045;SDS011;41913;51.030;3.706;2023-02-11T09:49:02;1.15;;;1.15;;
56045;SDS011;41913;51.030;3.706;2023-02-11T09:51:41;1.60;;;1.50;;
56045;SDS011;41913;51.030;3.706;2023-02-11T09:54:16;1.75;;;1.65;;
56045;SDS011;41913;51.030;3.706;2023-02-11T09:56:47;1.98;;;1.88;;
56045;SDS011;41913;51.030;3.706;2023-02-11T09:59:13;1.90;;;1.80;;
56045;SDS011;41913;51.030;3.706;2023-02-11T10:01:49;1.70;;;1.60;;
56045;SDS011;41913;51.030;3.706;2023-02-11T10:10:12;1.60;;;1.53;;
56045;SDS011;41913;51.030;3.706;2023-02-11T10:15:36;2.28;;;1.67;;
56045;SDS011;41913;51.030;3.706;2023-02-11T10:23:38;1.73;;;1.63;;
56045;SDS011;41913;51.030;3.706;2023-02-11T10:26:13;2.45;;;1.23;;
56045;SDS011;41913;51.030;3.706;2023-02-11T10:28:42;1.50;;;1.40;;
56045;SDS011;41913;51.030;3.706;2023-02-11T10:31:21;1.25;;;1.20;;
56045;SDS011;41913;51.030;3.706;2023-02-11T10:34:00;1.33;;;1.33;;
56045;SDS011;41913;51.030;3.706;2023-02-11T10:36:30;2.90;;;1.23;;
56045;SDS011;41913;51.030;3.706;2023-02-11T10:38:59;1.90;;;1.42;;
56045;SDS011;41913;51.030;3.706;2023-02-11T10:41:35;1.40;;;1.30;;
56045;SDS011;41913;51.030;3.706;2023-02-11T10:44:05;1.48;;;1.35;;
56045;SDS011;41913;51.030;3.706;2023-02-11T10:46:32;1.90;;;1.45;;
56045;SDS011;41913;51.030;3.706;2023-02-11T10:49:00;1.98;;;1.65;;
56045;SDS011;41913;51.030;3.706;2023-02-11T10:51:28;3.17;;;2.05;;
56045;SDS011;41913;51.030;3.706;2023-02-11T10:56:43;2.30;;;2.10;;
56045;SDS011;41913;51.030;3.706;2023-02-11T11:01:52;2.88;;;1.85;;
56045;SDS011;41913;51.030;3.706;2023-02-11T11:07:12;1.98;;;1.73;;
56045;SDS011;41913;51.030;3.706;2023-02-11T11:12:25;2.28;;;1.73;;
56045;SDS011;41913;51.030;3.706;2023-02-11T11:17:24;2.47;;;1.85;;
56045;SDS011;41913;51.030;3.706;2023-02-11T11:20:12;2.72;;;1.55;;
56045;SDS011;41913;51.030;3.706;2023-02-11T11:22:38;2.30;;;1.70;;
56045;SDS011;41913;51.030;3.706;2023-02-11T11:25:05;1.83;;;1.73;;
56045;SDS011;41913;51.030;3.706;2023-02-11T11:27:46;3.10;;;1.40;;
56045;SDS011;41913;51.030;3.706;2023-02-11T11:30:16;2.45;;;1.83;;
56045;SDS011;41913;51.030;3.706;2023-02-11T11:32:43;4.22;;;1.52;;
56045;SDS011;41913;51.030;3.706;2023-02-11T11:35:25;1.95;;;1.85;;
56045;SDS011;41913;51.030;3.706;2023-02-11T11:38:00;3.05;;;2.17;;
56045;SDS011;41913;51.030;3.706;2023-02-11T11:40:28;1.75;;;1.65;;
56045;SDS011;41913;51.030;3.706;2023-02-11T11:43:03;1.70;;;1.60;;
56045;SDS011;41913;51.030;3.706;2023-02-11T11:45:39;1.30;;;1.30;;
56045;SDS011;41913;51.030;3.706;2023-02-11T11:48:20;1.35;;;1.30;;
56045;SDS011;41913;51.030;3.706;2023-02-11T11:50:56;1.40;;;1.30;;
56045;SDS011;41913;51.030;3.706;2023-02-11T11:53:30;1.42;;;1.42;;
56045;SDS011;41913;51.030;3.706;2023-02-11T11:56:04;1.27;;;1.17;;
56045;SDS011;41913;51.030;3.706;2023-02-11T11:58:34;1.15;;;1.10;;
56045;SDS011;41913;51.030;3.706;2023-02-11T12:01:06;1.40;;;1.30;;
56045;SDS011;41913;51.030;3.706;2023-02-11T12:03:52;1.20;;;1.20;;
56045;SDS011;41913;51.030;3.706;2023-02-11T12:12:08;1.50;;;1.50;;
56045;SDS011;41913;51.030;3.706;2023-02-11T12:20:21;1.42;;;1.42;;
56045;SDS011;41913;51.030;3.706;2023-02-11T12:23:27;1.50;;;1.40;;
56045;SDS011;41913;51.030;3.706;2023-02-11T12:26:21;1.25;;;1.25;;
56045;SDS011;41913;51.030;3.706;2023-02-11T12:28:59;1.30;;;1.30;;
56045;SDS011;41913;51.030;3.706;2023-02-11T12:40:21;0.98;;;0.98;;
56045;SDS011;41913;51.030;3.706;2023-02-11T12:48:36;0.90;;;0.90;;
56045;SDS011;41913;51.030;3.706;2023-02-11T12:54:17;1.17;;;1.17;;
56045;SDS011;41913;51.030;3.706;2023-02-11T12:57:22;0.82;;;0.82;;
56045;SDS011;41913;51.030;3.706;2023-02-11T13:00:06;0.90;;;0.90;;
56045;SDS011;41913;51.030;3.706;2023-02-11T13:05:46;1.30;;;1.20;;
56045;SDS011;41913;51.030;3.706;2023-02-11T13:10:42;1.17;;;1.08;;
56045;SDS011;41913;51.030;3.706;2023-02-11T13:13:13;1.00;;;1.00;;
56045;SDS011;41913;51.030;3.706;2023-02-11T13:16:46;1.17;;;1.17;;
56045;SDS011;41913;51.030;3.706;2023-02-11T13:24:27;1.02;;;1.02;;
56045;SDS011;41913;51.030;3.706;2023-02-11T13:27:00;1.25;;;1.25;;
56045;SDS011;41913;51.030;3.706;2023-02-11T13:32:20;0.90;;;0.90;;
56045;SDS011;41913;51.030;3.706;2023-02-11T13:40:34;1.13;;;1.13;;
56045;SDS011;41913;51.030;3.706;2023-02-11T13:42:52;1.13;;;1.13;;
56045;SDS011;41913;51.030;3.706;2023-02-11T13:45:33;1.25;;;1.25;;
56045;SDS011;41913;51.030;3.706;2023-02-11T13:48:03;1.07;;;1.00;;
56045;SDS011;41913;51.030;3.706;2023-02-11T13:50:35;0.90;;;0.90;;
56045;SDS011;41913;51.030;3.706;2023-02-11T13:53:03;1.00;;;1.00;;
56045;SDS011;41913;51.030;3.706;2023-02-11T13:55:30;1.13;;;1.13;;
56045;SDS011;41913;51.030;3.706;2023-02-11T14:17:33;0.90;;;0.90;;
56045;SDS011;41913;51.030;3.706;2023-02-11T14:20:00;1.25;;;1.25;;
56045;SDS011;41913;51.030;3.706;2023-02-11T14:22:49;0.68;;;0.68;;
56045;SDS011;41913;51.030;3.706;2023-02-11T14:25:21;0.90;;;0.90;;
56045;SDS011;41913;51.030;3.706;2023-02-11T14:27:54;1.20;;;1.20;;
56045;SDS011;41913;51.030;3.706;2023-02-11T14:36:04;0.90;;;0.90;;
56045;SDS011;41913;51.030;3.706;2023-02-11T14:41:42;1.20;;;1.20;;
56045;SDS011;41913;51.030;3.706;2023-02-11T14:44:13;1.10;;;1.00;;
56045;SDS011;41913;51.030;3.706;2023-02-11T14:46:43;1.45;;;1.10;;
56045;SDS011;41913;51.030;3.706;2023-02-11T14:49:35;1.10;;;1.10;;
56045;SDS011;41913;51.030;3.706;2023-02-11T14:52:05;1.17;;;1.17;;
56045;SDS011;41913;51.030;3.706;2023-02-11T14:54:41;1.40;;;1.40;;
56045;SDS011;41913;51.030;3.706;2023-02-11T14:57:13;1.20;;;1.05;;
56045;SDS011;41913;51.030;3.706;2023-02-11T15:02:29;1.00;;;1.00;;
56045;SDS011;41913;51.030;3.706;2023-02-11T15:07:48;1.00;;;1.00;;
56045;SDS011;41913;51.030;3.706;2023-02-11T15:10:27;0.93;;;0.93;;
56045;SDS011;41913;51.030;3.706;2023-02-11T15:12:59;1.00;;;1.00;;
56045;SDS011;41913;51.030;3.706;2023-02-11T15:15:27;1.08;;;1.08;;
56045;SDS011;41913;51.030;3.706;2023-02-11T15:17:55;0.82;;;0.82;;
56045;SDS011;41913;51.030;3.706;2023-02-11T15:20:24;1.42;;;1.42;;
56045;SDS011;41913;51.030;3.706;2023-02-11T15:22:55;0.77;;;0.77;;
56045;SDS011;41913;51.030;3.706;2023-02-11T15:25:23;0.85;;;0.85;;
56045;SDS011;41913;51.030;3.706;2023-02-11T15:27:52;1.00;;;1.00;;
56045;SDS011;41913;51.030;3.706;2023-02-11T15:32:52;0.95;;;0.95;;
56045;SDS011;41913;51.030;3.706;2023-02-11T15:35:25;1.15;;;1.15;;
56045;SDS011;41913;51.030;3.706;2023-02-11T15:37:52;0.90;;;0.88;;
56045;SDS011;41913;51.030;3.706;2023-02-11T15:40:27;0.90;;;0.90;;
56045;SDS011;41913;51.030;3.706;2023-02-11T15:42:58;1.27;;;0.90;;
56045;SDS011;41913;51.030;3.706;2023-02-11T15:45:30;0.90;;;0.90;;
56045;SDS011;41913;51.030;3.706;2023-02-11T15:50:31;1.10;;;1.10;;
56045;SDS011;41913;51.030;3.706;2023-02-11T15:53:02;1.20;;;1.20;;
56045;SDS011;41913;51.030;3.706;2023-02-11T15:55:53;1.63;;;1.52;;
56045;SDS011;41913;51.030;3.706;2023-02-11T15:58:27;0.82;;;0.82;;
56045;SDS011;41913;51.030;3.706;2023-02-11T16:00:53;0.95;;;0.90;;
56045;SDS011;41913;51.030;3.706;2023-02-11T16:03:24;1.17;;;1.17;;
56045;SDS011;41913;51.030;3.706;2023-02-11T16:08:39;1.13;;;1.13;;
56045;SDS011;41913;51.030;3.706;2023-02-11T16:11:17;0.80;;;0.80;;
56045;SDS011;41913;51.030;3.706;2023-02-11T16:13:54;1.00;;;1.00;;
56045;SDS011;41913;51.030;3.706;2023-02-11T16:16:21;1.15;;;1.15;;
56045;SDS011;41913;51.030;3.706;2023-02-11T16:18:50;0.90;;;0.90;;
56045;SDS011;41913;51.030;3.706;2023-02-11T16:21:17;1.08;;;1.08;;
56045;SDS011;41913;51.030;3.706;2023-02-11T16:23:49;1.00;;;1.00;;
56045;SDS011;41913;51.030;3.706;2023-02-11T16:29:03;0.85;;;0.85;;
56045;SDS011;41913;51.030;3.706;2023-02-11T16:31:32;0.85;;;0.85;;
56045;SDS011;41913;51.030;3.706;2023-02-11T16:34:00;1.25;;;1.25;;
56045;SDS011;41913;51.030;3.706;2023-02-11T16:36:25;3.13;;;0.90;;
56045;SDS011;41913;51.030;3.706;2023-02-11T16:38:51;1.00;;;1.00;;
56045;SDS011;41913;51.030;3.706;2023-02-11T16:41:17;0.85;;;0.85;;
56045;SDS011;41913;51.030;3.706;2023-02-11T16:43:42;1.20;;;1.20;;
56045;SDS011;41913;51.030;3.706;2023-02-11T16:46:09;1.27;;;1.23;;
56045;SDS011;41913;51.030;3.706;2023-02-11T16:48:38;1.35;;;1.35;;
56045;SDS011;41913;51.030;3.706;2023-02-11T16:51:04;1.00;;;1.00;;
56045;SDS011;41913;51.030;3.706;2023-02-11T16:53:34;1.00;;;1.00;;
56045;SDS011;41913;51.030;3.706;2023-02-11T16:55:59;1.08;;;1.08;;
56045;SDS011;41913;51.030;3.706;2023-02-11T16:58:25;1.10;;;1.10;;
56045;SDS011;41913;51.030;3.706;2023-02-11T17:00:51;0.95;;;0.95;;
56045;SDS011;41913;51.030;3.706;2023-02-11T17:03:19;1.00;;;1.00;;
56045;SDS011;41913;51.030;3.706;2023-02-11T17:05:48;1.33;;;1.33;;
56045;SDS011;41913;51.030;3.706;2023-02-11T17:08:14;0.68;;;0.68;;
56045;SDS011;41913;51.030;3.706;2023-02-11T17:10:40;1.40;;;1.40;;
56045;SDS011;41913;51.030;3.706;2023-02-11T17:13:06;0.95;;;0.95;;
56045;SDS011;41913;51.030;3.706;2023-02-11T17:15:32;0.90;;;0.90;;
56045;SDS011;41913;51.030;3.706;2023-02-11T17:17:57;1.00;;;1.00;;
56045;SDS011;41913;51.030;3.706;2023-02-11T17:20:23;1.23;;;1.23;;
56045;SDS011;41913;51.030;3.706;2023-02-11T17:22:49;1.10;;;1.10;;
56045;SDS011;41913;51.030;3.706;2023-02-11T17:25:15;1.17;;;1.02;;
56045;SDS011;41913;51.030;3.706;2023-02-11T17:27:41;1.10;;;1.10;;
56045;SDS011;41913;51.030;3.706;2023-02-11T17:30:08;0.88;;;0.88;;
56045;SDS011;41913;51.030;3.706;2023-02-11T17:32:35;0.85;;;0.85;;
56045;SDS011;41913;51.030;3.706;2023-02-11T17:35:02;2.17;;;1.40;;
56045;SDS011;41913;51.030;3.706;2023-02-11T17:37:30;1.20;;;1.20;;
56045;SDS011;41913;51.030;3.706;2023-02-11T17:39:56;1.20;;;1.10;;
56045;SDS011;41913;51.030;3.706;2023-02-11T17:42:22;1.30;;;1.30;;
56045;SDS011;41913;51.030;3.706;2023-02-11T17:44:47;1.10;;;1.10;;